Time;durP1;ratioP1;P1;durP2;ratioP2;P2;SDS_P1;SDS_P2;PMS_P1;PMS_P2;Temp;Humidity;BMP_temperature;BMP_pressure;BME280_temperature;BME280_humidity;BME280_pressure;Samples;Min_cycle;Max_cycle;Signal;HPM_P1;HPM_P2
2023/01/28 00:01:43;;;;;;;3.25;1.30;;;17.90;34.70;;;;;;5052386;28;20233;-70
2023/01/28 00:04:11;;;;;;;4.22;1.45;;;17.90;34.70;;;;;;5050545;28;20231;-70
2023/01/28 00:06:40;;;;;;;2.50;1.38;;;17.80;34.60;;;;;;5052105;28;20699;-70
2023/01/28 00:09:07;;;;;;;3.17;1.25;;;17.90;34.70;;;;;;5052228;28;20191;-71
2023/01/28 00:11:34;;;;;;;3.80;1.58;;;17.80;34.60;;;;;;5052096;28;20253;-70
2023/01/28 00:14:03;;;;;;;4.38;1.50;;;17.80;34.50;;;;;;5051636;28;20242;-70
2023/01/28 00:16:31;;;;;;;2.47;1.48;;;17.80;34.60;;;;;;5052221;28;20215;-69
2023/01/28 00:18:58;;;;;;;2.38;1.20;;;17.80;34.50;;;;;;5052148;28;20624;-74
2023/01/28 00:21:25;;;;;;;3.42;1.20;;;17.80;34.50;;;;;;5052221;28;20223;-71
2023/01/28 00:23:55;;;;;;;3.55;1.50;;;17.80;34.50;;;;;;5052113;28;20188;-70
2023/01/28 00:26:24;;;;;;;4.18;1.35;;;17.80;34.60;;;;;;5051833;28;20219;-70
2023/01/28 00:28:51;;;;;;;2.90;1.45;;;17.80;34.50;;;;;;5051882;28;20689;-70
2023/01/28 00:31:20;;;;;;;2.72;1.45;;;17.80;34.40;;;;;;5051975;28;20223;-71
2023/01/28 00:33:49;;;;;;;3.13;1.45;;;17.80;34.50;;;;;;5052034;28;20245;-68
2023/01/28 00:36:18;;;;;;;3.15;1.15;;;17.80;34.50;;;;;;5052100;28;20215;-71
2023/01/28 00:38:50;;;;;;;4.68;1.30;;;17.80;34.50;;;;;;5051643;28;20628;-68
2023/01/28 00:41:30;;;;;;;4.07;1.45;;;17.70;34.40;;;;;;5052816;28;20219;-71
2023/01/28 00:43:59;;;;;;;2.67;1.30;;;17.80;34.30;;;;;;5052752;28;20187;-70
2023/01/28 00:46:26;;;;;;;2.22;1.40;;;17.70;34.40;;;;;;5035621;28;20228;-68
2023/01/28 00:48:54;;;;;;;3.75;1.52;;;17.70;34.30;;;;;;5035644;28;20196;-68
2023/01/28 00:51:21;;;;;;;2.72;1.27;;;17.70;34.30;;;;;;5035849;28;20462;-70
2023/01/28 00:53:48;;;;;;;2.38;1.27;;;17.70;34.20;;;;;;5035469;28;20204;-74
2023/01/28 00:56:18;;;;;;;2.00;1.30;;;17.70;34.30;;;;;;5035665;28;20262;-70
2023/01/28 00:58:47;;;;;;;2.88;1.27;;;17.70;34.30;;;;;;5035022;28;20590;-70
2023/01/28 01:01:17;;;;;;;4.40;1.50;;;17.70;34.30;;;;;;5035664;28;20213;-68
2023/01/28 01:03:44;;;;;;;3.92;1.35;;;17.70;34.20;;;;;;5035137;28;20236;-70
2023/01/28 01:06:13;;;;;;;3.35;1.40;;;17.70;34.30;;;;;;5036423;28;20220;-70
2023/01/28 01:08:41;;;;;;;1.88;1.27;;;17.70;34.20;;;;;;5035516;28;20243;-70
2023/01/28 01:11:10;;;;;;;2.88;1.08;;;17.60;34.00;;;;;;5035170;28;20725;-70
2023/01/28 01:13:37;;;;;;;3.17;1.20;;;17.70;34.20;;;;;;5034804;28;20192;-70
2023/01/28 01:16:08;;;;;;;2.65;1.10;;;17.60;34.10;;;;;;5035369;28;20216;-70
2023/01/28 01:18:40;;;;;;;2.97;1.30;;;17.60;34.20;;;;;;5035374;28;20668;-71
2023/01/28 01:21:09;;;;;;;4.03;1.30;;;17.70;34.20;;;;;;5035095;28;20242;-70
2023/01/28 01:23:36;;;;;;;2.15;0.88;;;17.60;34.30;;;;;;5035044;28;20323;-71
2023/01/28 01:26:04;;;;;;;1.98;1.00;;;17.60;34.00;;;;;;5034718;28;20634;-71
2023/01/28 01:28:32;;;;;;;2.28;1.27;;;17.60;34.00;;;;;;5034281;28;20201;-70
2023/01/28 01:31:04;;;;;;;3.25;1.13;;;17.60;34.00;;;;;;5035044;28;20711;-70
2023/01/28 01:33:33;;;;;;;2.65;1.50;;;17.60;34.10;;;;;;5034850;28;20810;-71
2023/01/28 01:36:00;;;;;;;2.35;1.38;;;17.60;34.00;;;;;;5034526;28;20641;-70
2023/01/28 01:38:31;;;;;;;3.22;1.02;;;17.60;34.00;;;;;;5034828;28;20220;-70
2023/01/28 01:40:59;;;;;;;2.85;1.10;;;17.60;34.10;;;;;;5034834;28;20647;-69
2023/01/28 01:43:45;;;;;;;1.88;1.10;;;17.60;34.00;;;;;;5034561;28;20200;-70
2023/01/28 01:46:13;;;;;;;3.22;1.25;;;17.60;34.10;;;;;;5034821;28;20216;-71
2023/01/28 01:48:44;;;;;;;1.80;1.17;;;17.60;34.00;;;;;;5016380;28;20219;-70
2023/01/28 01:51:14;;;;;;;2.00;1.20;;;17.60;34.00;;;;;;5034419;28;20266;-70
2023/01/28 01:53:48;;;;;;;2.80;1.13;;;17.50;33.90;;;;;;5033695;28;20196;-70
2023/01/28 01:56:19;;;;;;;2.63;1.20;;;17.50;34.00;;;;;;5034579;28;20223;-70
2023/01/28 01:58:50;;;;;;;2.42;1.10;;;17.50;34.00;;;;;;5034977;28;20220;-70
2023/01/28 02:01:20;;;;;;;2.38;1.42;;;17.50;33.90;;;;;;5034585;28;20337;-70
2023/01/28 02:04:07;;;;;;;4.25;1.48;;;17.60;33.90;;;;;;5016155;28;20221;-70
2023/01/28 02:06:35;;;;;;;2.38;1.05;;;17.60;33.90;;;;;;5034272;28;20223;-71
2023/01/28 02:09:06;;;;;;;4.20;1.25;;;17.50;33.90;;;;;;5034119;28;20220;-70
2023/01/28 02:11:34;;;;;;;5.13;1.52;;;17.50;33.90;;;;;;5034063;28;20216;-70
2023/01/28 02:14:04;;;;;;;3.42;1.13;;;17.50;33.90;;;;;;5035226;28;20192;-70
2023/01/28 02:16:32;;;;;;;1.92;1.20;;;17.50;33.90;;;;;;5033931;28;20216;-70
2023/01/28 02:19:15;;;;;;;2.88;1.20;;;17.50;33.90;;;;;;5034168;28;20216;-70
2023/01/28 02:22:07;;;;;;;3.33;1.35;;;17.50;33.90;;;;;;5034118;28;20220;-70
2023/01/28 02:25:02;;;;;;;3.05;1.25;;;17.50;33.90;;;;;;5034079;28;20250;-70
2023/01/28 02:27:36;;;;;;;2.53;1.30;;;17.50;33.80;;;;;;5033299;28;20220;-70
2023/01/28 02:30:10;;;;;;;3.95;1.52;;;17.50;34.00;;;;;;5034107;28;20192;-70
2023/01/28 02:32:44;;;;;;;2.85;1.20;;;17.50;33.90;;;;;;5033933;28;20219;-71
2023/01/28 02:35:18;;;;;;;1.77;1.08;;;17.50;34.50;;;;;;5033586;28;20191;-70
2023/01/28 02:37:52;;;;;;;1.60;1.00;;;17.50;33.90;;;;;;5034921;28;20211;-73
2023/01/28 02:40:26;;;;;;;3.08;1.30;;;17.50;33.90;;;;;;5033624;28;20245;-72
2023/01/28 02:42:53;;;;;;;1.98;1.20;;;17.40;33.80;;;;;;5033125;28;20726;-71
2023/01/28 02:47:56;;;;;;;1.27;1.00;;;17.40;33.70;;;;;;5033332;28;20184;-71
2023/01/28 02:48:11;;;;;;;2.08;1.30;;;17.40;33.70;;;;;;5033276;28;20216;-71
2023/01/28 02:50:50;;;;;;;3.75;1.27;;;17.40;33.70;;;;;;5034292;28;20231;-70
2023/01/28 02:53:43;;;;;;;2.90;1.40;;;17.40;33.70;;;;;;5033552;28;20192;-70
2023/01/28 02:56:19;;;;;;;2.05;1.17;;;17.40;33.70;;;;;;5018378;28;20201;-71
2023/01/28 02:58:53;;;;;;;2.90;1.05;;;17.40;33.70;;;;;;5032493;28;20644;-70
2023/01/28 03:01:30;;;;;;;2.30;1.10;;;17.40;33.70;;;;;;5033590;28;20282;-70
2023/01/28 03:04:02;;;;;;;3.78;1.30;;;17.40;33.70;;;;;;5032940;28;20281;-70
2023/01/28 03:06:34;;;;;;;4.38;1.30;;;17.40;33.60;;;;;;5033212;28;20223;-70
2023/01/28 03:09:23;;;;;;;4.10;1.40;;;17.40;33.70;;;;;;5033294;28;20235;-71
2023/01/28 03:37:09;;;;;;;1.20;1.00;;;17.40;33.60;;;;;;5032868;28;20269;-70
2023/01/28 03:39:38;;;;;;;3.90;1.00;;;17.30;33.50;;;;;;5032651;28;20693;-68
2023/01/28 03:42:09;;;;;;;2.63;1.20;;;17.30;33.50;;;;;;5033279;28;20270;-73
2023/01/28 03:44:52;;;;;;;1.30;1.10;;;17.30;33.50;;;;;;5032412;28;20239;-71
2023/01/28 03:47:20;;;;;;;2.70;1.00;;;17.30;33.50;;;;;;5032217;28;20298;-73
2023/01/28 03:49:51;;;;;;;2.17;1.02;;;17.30;33.50;;;;;;5032345;28;20238;-72
2023/01/28 03:52:22;;;;;;;2.25;1.00;;;17.30;33.50;;;;;;5032334;28;20633;-70
2023/01/28 03:54:50;;;;;;;4.45;1.10;;;17.30;33.50;;;;;;5033688;28;20183;-71
2023/01/28 03:57:19;;;;;;;3.53;1.02;;;17.30;33.50;;;;;;5031439;28;20713;-70
2023/01/28 03:59:49;;;;;;;1.33;1.02;;;17.30;33.50;;;;;;5032357;28;20274;-70
2023/01/28 04:02:17;;;;;;;1.98;1.00;;;17.30;33.50;;;;;;5032370;28;20266;-70
2023/01/28 04:04:44;;;;;;;3.72;0.90;;;17.20;33.30;;;;;;5032203;28;20263;-70
2023/01/28 04:07:14;;;;;;;1.80;1.00;;;17.30;33.40;;;;;;5032074;28;20578;-71
2023/01/28 04:09:42;;;;;;;1.98;0.90;;;17.30;33.50;;;;;;5032111;28;20647;-69
2023/01/28 04:12:10;;;;;;;2.78;1.10;;;17.30;33.50;;;;;;5031816;28;20266;-68
2023/01/28 04:14:40;;;;;;;2.28;1.33;;;17.30;33.40;;;;;;5031965;28;20238;-68
2023/01/28 04:17:09;;;;;;;2.05;0.85;;;17.30;33.40;;;;;;5034919;28;20223;-70
2023/01/28 04:19:36;;;;;;;1.73;0.90;;;17.20;33.30;;;;;;5036395;28;20228;-71
2023/01/28 04:22:06;;;;;;;1.73;1.00;;;17.30;33.40;;;;;;5036375;28;20226;-70
2023/01/28 04:24:34;;;;;;;1.85;1.10;;;17.30;33.40;;;;;;5036023;28;20223;-70
2023/01/28 04:27:01;;;;;;;2.13;1.15;;;17.20;33.30;;;;;;5035277;28;20254;-72
2023/01/28 04:29:28;;;;;;;2.15;1.20;;;17.30;33.40;;;;;;5036289;28;20192;-70
2023/01/28 04:31:56;;;;;;;1.80;0.90;;;17.20;33.20;;;;;;5035899;28;20582;-70
2023/01/28 04:34:23;;;;;;;1.65;0.80;;;17.20;33.20;;;;;;5036164;28;20192;-71
2023/01/28 04:36:50;;;;;;;3.42;1.10;;;17.20;33.20;;;;;;5036091;28;20231;-70
2023/01/28 04:39:17;;;;;;;2.50;0.98;;;17.20;33.20;;;;;;5035641;28;20650;-70
2023/01/28 04:41:46;;;;;;;1.80;1.00;;;17.20;33.20;;;;;;5035145;28;20706;-70
2023/01/28 04:44:15;;;;;;;2.78;1.20;;;17.20;33.30;;;;;;5035744;28;20243;-70
2023/01/28 04:46:42;;;;;;;2.13;1.00;;;17.20;33.20;;;;;;5035759;28;20712;-70
2023/01/28 04:49:10;;;;;;;2.88;1.02;;;17.20;33.20;;;;;;5035907;28;20211;-71
2023/01/28 04:51:40;;;;;;;1.60;0.90;;;17.20;33.20;;;;;;5035782;28;20223;-70
2023/01/28 04:54:09;;;;;;;1.80;1.00;;;17.20;33.20;;;;;;5035777;28;20620;-70
2023/01/28 04:56:37;;;;;;;3.03;1.10;;;17.20;33.20;;;;;;5034853;28;20248;-68
2023/01/28 04:59:17;;;;;;;2.72;1.20;;;17.20;33.20;;;;;;5035901;28;20192;-70
2023/01/28 05:01:44;;;;;;;1.30;1.10;;;17.20;33.20;;;;;;5035218;28;20254;-71
2023/01/28 05:04:11;;;;;;;1.80;1.00;;;17.20;33.20;;;;;;5035267;28;20278;-68
2023/01/28 05:06:38;;;;;;;3.50;1.27;;;17.20;33.20;;;;;;5035741;28;20286;-70
2023/01/28 05:09:05;;;;;;;1.85;1.10;;;17.20;33.20;;;;;;5035574;28;20189;-68
2023/01/28 05:11:32;;;;;;;2.55;1.10;;;17.20;33.20;;;;;;5034677;28;20752;-70
2023/01/28 05:14:01;;;;;;;2.05;1.00;;;17.20;33.20;;;;;;5035400;28;20239;-70
2023/01/28 05:16:30;;;;;;;1.10;0.88;;;17.20;33.20;;;;;;5035352;28;20220;-70
2023/01/28 05:18:57;;;;;;;3.50;1.15;;;17.20;33.20;;;;;;5035221;28;20188;-70
2023/01/28 05:21:25;;;;;;;2.70;1.00;;;17.10;33.10;;;;;;5035254;28;20254;-68
2023/01/28 05:23:53;;;;;;;2.05;1.00;;;17.10;33.10;;;;;;5035248;28;20234;-71
2023/01/28 05:26:21;;;;;;;2.03;1.00;;;17.10;33.10;;;;;;5034564;28;20192;-70
2023/01/28 05:28:48;;;;;;;2.13;0.90;;;17.10;33.10;;;;;;5035040;28;20242;-70
2023/01/28 05:31:15;;;;;;;2.17;1.13;;;17.10;33.70;;;;;;5035087;28;20192;-70
2023/01/28 05:33:44;;;;;;;2.30;1.20;;;17.10;33.10;;;;;;5035073;28;20246;-70
2023/01/28 05:36:11;;;;;;;2.15;1.02;;;17.10;33.10;;;;;;5034969;28;20634;-70
2023/01/28 05:38:38;;;;;;;1.70;1.00;;;17.10;33.10;;;;;;5035511;28;20642;-70
2023/01/28 05:41:05;;;;;;;2.80;1.20;;;17.10;33.10;;;;;;5034105;28;20216;-70
2023/01/28 05:43:32;;;;;;;2.22;0.95;;;17.10;33.10;;;;;;5034857;28;20270;-71
2023/01/28 05:45:59;;;;;;;1.85;1.10;;;17.10;33.10;;;;;;5034909;28;20592;-70
2023/01/28 05:48:27;;;;;;;1.33;1.00;;;17.10;33.10;;;;;;5034667;28;20669;-70
2023/01/28 05:50:55;;;;;;;1.95;1.15;;;17.10;33.10;;;;;;5034333;28;20623;-71
2023/01/28 05:53:23;;;;;;;1.90;1.02;;;17.10;33.10;;;;;;5034677;28;20270;-68
2023/01/28 05:55:52;;;;;;;1.52;0.88;;;17.20;33.10;;;;;;5034152;28;20189;-70
2023/01/28 05:58:19;;;;;;;1.83;1.10;;;17.20;33.20;;;;;;5034345;28;20220;-70
2023/01/28 06:00:47;;;;;;;2.17;1.27;;;17.20;33.20;;;;;;5034672;28;20216;-70
2023/01/28 06:03:14;;;;;;;3.95;1.15;;;17.20;33.20;;;;;;5034270;28;20224;-73
2023/01/28 06:05:41;;;;;;;1.88;0.90;;;17.30;33.20;;;;;;5035406;28;20197;-72
2023/01/28 06:08:09;;;;;;;3.13;1.40;;;17.30;33.20;;;;;;5034503;28;20220;-68
2023/01/28 06:10:37;;;;;;;2.15;1.10;;;17.30;33.30;;;;;;5033696;28;20196;-70
2023/01/28 06:13:04;;;;;;;2.20;1.10;;;17.30;33.20;;;;;;5034365;28;20228;-70
2023/01/28 06:15:31;;;;;;;1.52;0.90;;;17.40;33.40;;;;;;5034034;28;20613;-71
2023/01/28 06:17:58;;;;;;;2.15;1.10;;;17.40;33.40;;;;;;5033817;28;20231;-70
2023/01/28 06:20:25;;;;;;;2.17;1.00;;;17.40;33.40;;;;;;5034190;28;20216;-70
2023/01/28 06:22:53;;;;;;;2.72;1.02;;;17.40;33.40;;;;;;5034211;28;20673;-70
2023/01/28 06:25:21;;;;;;;1.55;1.08;;;17.40;33.50;;;;;;5033272;28;20654;-70
2023/01/28 06:27:48;;;;;;;1.70;0.95;;;17.40;33.50;;;;;;5034343;28;20216;-71
2023/01/28 06:30:16;;;;;;;1.75;0.90;;;17.50;33.60;;;;;;5034051;28;20197;-71
2023/01/28 06:32:43;;;;;;;2.30;0.85;;;17.50;33.70;;;;;;5034089;28;20254;-70
2023/01/28 06:35:13;;;;;;;1.40;0.80;;;17.50;33.70;;;;;;5033694;28;20192;-70
2023/01/28 06:37:40;;;;;;;1.17;1.00;;;17.50;33.70;;;;;;5034175;28;20249;-72
2023/01/28 06:40:09;;;;;;;0.90;0.80;;;17.50;33.70;;;;;;5032889;28;20247;-70
2023/01/28 06:42:38;;;;;;;1.23;0.90;;;17.60;33.90;;;;;;5033864;28;20266;-71
2023/01/28 06:45:06;;;;;;;1.65;0.90;;;17.60;33.90;;;;;;5033739;28;20192;-70
2023/01/28 06:47:34;;;;;;;1.15;1.00;;;17.60;33.90;;;;;;5033543;28;20224;-70
2023/01/28 06:50:01;;;;;;;1.13;1.02;;;17.60;33.90;;;;;;5033612;28;20189;-70
2023/01/28 06:52:28;;;;;;;1.50;0.90;;;17.60;33.90;;;;;;5033562;28;20216;-69
2023/01/28 06:54:55;;;;;;;1.33;1.08;;;17.60;34.00;;;;;;5033568;28;20277;-71
2023/01/28 06:57:23;;;;;;;1.48;1.00;;;17.70;34.10;;;;;;5032974;28;20221;-70
2023/01/28 06:59:52;;;;;;;0.70;0.70;;;17.70;34.10;;;;;;5015207;28;20274;-70
2023/01/28 07:02:19;;;;;;;2.40;1.00;;;17.70;34.10;;;;;;5033003;28;20768;-70
2023/01/28 07:04:46;;;;;;;1.75;0.88;;;17.70;34.10;;;;;;5033077;28;20231;-70
2023/01/28 07:07:13;;;;;;;0.90;0.75;;;17.70;34.20;;;;;;5032971;28;20266;-70
2023/01/28 07:09:40;;;;;;;2.10;0.80;;;17.70;34.10;;;;;;5033311;28;20192;-71
2023/01/28 07:12:08;;;;;;;1.02;0.70;;;17.70;34.10;;;;;;5032977;28;20227;-71
2023/01/28 07:14:35;;;;;;;1.05;0.73;;;17.80;34.30;;;;;;5033237;28;20605;-71
2023/01/28 07:17:03;;;;;;;1.10;0.80;;;17.80;34.30;;;;;;5033210;28;20219;-70
2023/01/28 07:19:31;;;;;;;1.17;0.80;;;17.80;34.30;;;;;;5032875;28;20223;-70
2023/01/28 07:21:59;;;;;;;1.17;0.80;;;17.80;34.30;;;;;;5033143;28;20235;-71
2023/01/28 07:24:27;;;;;;;1.38;1.00;;;17.80;34.30;;;;;;5033184;28;20250;-70
2023/01/28 07:26:56;;;;;;;2.05;1.10;;;17.80;34.30;;;;;;5032250;28;20697;-70
2023/01/28 07:29:25;;;;;;;1.00;0.90;;;17.80;34.40;;;;;;5032980;28;20208;-70
2023/01/28 07:31:52;;;;;;;2.20;1.10;;;17.80;34.30;;;;;;5032908;28;20264;-74
2023/01/28 07:34:22;;;;;;;1.75;0.90;;;17.80;34.20;;;;;;5033018;28;20189;-70
2023/01/28 07:36:49;;;;;;;1.05;0.80;;;17.90;34.40;;;;;;5032851;28;20251;-71
2023/01/28 07:39:16;;;;;;;0.98;0.85;;;17.90;34.30;;;;;;5032803;28;20193;-70
2023/01/28 07:41:43;;;;;;;2.13;0.85;;;17.90;34.40;;;;;;5032112;28;20275;-70
2023/01/28 07:44:10;;;;;;;1.08;0.90;;;17.90;34.40;;;;;;5032686;28;20292;-70
2023/01/28 07:46:40;;;;;;;0.80;0.75;;;17.90;34.30;;;;;;5032542;28;20188;-70
2023/01/28 07:49:09;;;;;;;1.55;1.00;;;17.90;34.40;;;;;;5032712;28;20197;-70
2023/01/28 07:51:38;;;;;;;1.40;0.90;;;18.00;34.40;;;;;;5031707;28;20192;-70
2023/01/28 07:54:07;;;;;;;1.20;0.90;;;17.90;34.30;;;;;;5032866;28;20188;-70
2023/01/28 07:56:34;;;;;;;2.65;0.70;;;17.90;34.30;;;;;;5031678;28;20196;-70
2023/01/28 07:59:01;;;;;;;1.38;0.90;;;18.00;34.30;;;;;;5032448;28;20188;-70
2023/01/28 08:01:28;;;;;;;0.93;0.80;;;18.00;34.30;;;;;;5032362;28;20745;-70
2023/01/28 08:03:55;;;;;;;2.42;0.95;;;18.00;34.30;;;;;;5032247;28;20374;-70
2023/01/28 08:06:22;;;;;;;0.95;0.75;;;18.00;34.30;;;;;;5032672;28;20258;-70
2023/01/28 08:08:52;;;;;;;2.15;1.05;;;18.00;34.30;;;;;;5014375;28;20220;-71
2023/01/28 08:11:19;;;;;;;1.42;0.60;;;18.00;34.30;;;;;;5032039;28;20192;-70
2023/01/28 08:13:46;;;;;;;1.75;1.05;;;18.00;34.30;;;;;;5032334;28;20338;-70
2023/01/28 08:16:14;;;;;;;2.40;1.10;;;18.10;34.30;;;;;;5032062;28;20650;-70
2023/01/28 08:18:41;;;;;;;2.05;0.80;;;18.10;34.30;;;;;;5031998;28;20220;-70
2023/01/28 08:21:08;;;;;;;1.80;1.05;;;18.10;34.30;;;;;;5032244;28;20276;-70
2023/01/28 08:23:35;;;;;;;1.13;0.77;;;18.10;34.20;;;;;;5032167;28;20784;-70
2023/01/28 08:26:03;;;;;;;1.63;0.80;;;18.10;34.30;;;;;;5031528;28;20650;-70
2023/01/28 08:28:31;;;;;;;1.80;1.15;;;18.10;34.30;;;;;;5031906;28;20220;-70
2023/01/28 08:31:00;;;;;;;0.98;0.85;;;18.10;34.30;;;;;;5031899;28;20270;-70
2023/01/28 08:33:27;;;;;;;1.52;0.77;;;18.10;34.30;;;;;;5032245;28;20216;-70
2023/01/28 08:35:54;;;;;;;1.55;0.90;;;18.10;34.20;;;;;;5032123;28;20796;-70
2023/01/28 08:38:21;;;;;;;2.95;0.90;;;18.20;34.30;;;;;;5032219;28;20220;-71
2023/01/28 08:40:49;;;;;;;2.58;0.90;;;18.20;34.30;;;;;;5031326;28;20212;-70
2023/01/28 08:43:18;;;;;;;1.95;1.02;;;18.20;34.30;;;;;;5031914;28;20678;-73
2023/01/28 08:45:45;;;;;;;1.63;1.00;;;18.20;34.30;;;;;;5032090;28;20193;-71
2023/01/28 08:48:15;;;;;;;2.00;0.93;;;18.10;34.20;;;;;;5032191;28;20224;-71
2023/01/28 08:50:43;;;;;;;1.27;0.82;;;18.20;34.30;;;;;;5031985;28;20196;-71
2023/01/28 08:53:12;;;;;;;1.27;0.80;;;18.20;34.30;;;;;;5032184;28;20702;-70
2023/01/28 08:55:39;;;;;;;1.92;0.95;;;18.20;34.30;;;;;;5031582;28;20204;-71
2023/01/28 08:58:10;;;;;;;1.23;0.90;;;18.20;34.30;;;;;;5031773;28;20266;-74
2023/01/28 09:00:39;;;;;;;0.77;0.77;;;18.20;34.30;;;;;;5031881;28;20212;-71
2023/01/28 09:03:07;;;;;;;1.17;0.85;;;18.20;34.30;;;;;;5034225;28;20790;-74
2023/01/28 09:05:34;;;;;;;1.75;1.10;;;18.20;34.20;;;;;;5035227;28;20725;-72
2023/01/28 09:08:02;;;;;;;1.70;0.90;;;18.20;34.20;;;;;;5035625;28;20224;-71
2023/01/28 09:10:29;;;;;;;1.58;0.80;;;18.20;34.10;;;;;;5035526;28;20279;-74
2023/01/28 09:12:56;;;;;;;2.33;0.95;;;18.30;34.30;;;;;;5034200;28;20216;-73
2023/01/28 09:15:24;;;;;;;1.63;0.98;;;18.20;34.20;;;;;;5035571;28;20622;-72
2023/01/28 09:17:57;;;;;;;2.03;1.00;;;18.30;34.20;;;;;;5035136;28;20220;-74
2023/01/28 09:20:24;;;;;;;1.02;0.80;;;18.30;34.30;;;;;;5035498;28;20188;-73
2023/01/28 09:22:52;;;;;;;1.30;0.80;;;18.30;34.20;;;;;;5035461;28;20263;-74
2023/01/28 09:25:19;;;;;;;1.00;0.90;;;18.30;34.30;;;;;;5033252;28;20283;-72
2023/01/28 09:27:46;;;;;;;1.98;1.45;;;18.30;34.20;;;;;;5034940;28;20966;-70
2023/01/28 09:30:14;;;;;;;1.38;0.93;;;18.30;34.90;;;;;;5035039;28;20189;-73
2023/01/28 09:32:41;;;;;;;1.25;0.90;;;18.30;34.20;;;;;;5035202;28;20216;-70
2023/01/28 09:35:11;;;;;;;1.95;1.00;;;18.30;34.20;;;;;;5034484;28;20219;-70
2023/01/28 09:37:38;;;;;;;1.27;0.77;;;18.30;34.20;;;;;;5034727;28;20274;-70
2023/01/28 09:40:06;;;;;;;1.58;0.90;;;18.30;34.20;;;;;;5034478;28;20610;-70
2023/01/28 09:42:56;;;;;;;1.00;0.93;;;18.30;34.20;;;;;;5034894;28;20234;-70
2023/01/28 09:45:29;;;;;;;1.92;0.80;;;18.30;34.10;;;;;;5034982;28;20196;-70
2023/01/28 09:48:00;;;;;;;2.03;1.05;;;18.30;34.20;;;;;;5034915;28;20220;-70
2023/01/28 09:50:33;;;;;;;1.42;1.00;;;18.30;34.20;;;;;;5034463;28;20611;-70
2023/01/28 09:53:06;;;;;;;2.80;1.00;;;18.30;34.20;;;;;;5034606;28;20220;-72
2023/01/28 09:55:36;;;;;;;1.42;1.00;;;18.30;34.20;;;;;;5034281;28;20192;-72
2023/01/28 09:58:06;;;;;;;1.20;0.90;;;18.30;34.10;;;;;;5034790;28;20212;-71
2023/01/28 10:00:40;;;;;;;1.27;1.00;;;18.40;34.20;;;;;;5034667;28;20211;-72
2023/01/28 10:03:26;;;;;;;1.20;0.80;;;18.30;34.10;;;;;;5034525;28;20216;-72
2023/01/28 10:06:03;;;;;;;1.15;0.75;;;18.30;34.10;;;;;;5034146;28;20196;-70
2023/01/28 10:08:46;;;;;;;0.90;0.90;;;18.40;34.30;;;;;;5034193;28;20347;-70
2023/01/28 10:11:20;;;;;;;1.92;1.00;;;18.40;34.20;;;;;;5034656;28;20195;-70
2023/01/28 10:13:56;;;;;;;2.65;1.08;;;18.40;34.20;;;;;;5033684;28;20215;-72
2023/01/28 10:16:31;;;;;;;1.58;0.98;;;18.40;34.20;;;;;;5034341;28;20188;-70
2023/01/28 10:19:04;;;;;;;1.77;0.80;;;18.40;34.20;;;;;;5034559;28;20223;-69
2023/01/28 10:21:39;;;;;;;1.25;0.90;;;18.40;34.20;;;;;;5034197;28;20212;-70
2023/01/28 10:24:15;;;;;;;2.05;1.00;;;18.40;34.20;;;;;;5033593;28;20694;-70
2023/01/28 10:26:44;;;;;;;1.10;0.80;;;18.40;34.20;;;;;;5033902;28;20219;-69
2023/01/28 10:29:16;;;;;;;1.25;0.90;;;18.40;34.20;;;;;;5034366;28;20217;-69
2023/01/28 10:31:52;;;;;;;1.85;1.00;;;18.40;34.10;;;;;;5034134;28;20335;-70
2023/01/28 10:34:19;;;;;;;1.30;0.90;;;18.40;34.10;;;;;;5033684;28;20193;-70
2023/01/28 10:36:49;;;;;;;1.83;0.90;;;18.40;34.10;;;;;;5033984;28;20196;-71
2023/01/28 10:39:18;;;;;;;1.80;0.90;;;18.40;34.10;;;;;;5033107;28;20200;-69
2023/01/28 10:41:45;;;;;;;1.60;0.90;;;18.40;34.10;;;;;;5033810;28;20228;-69
2023/01/28 10:44:18;;;;;;;3.35;1.20;;;18.40;34.00;;;;;;5033547;28;21043;-69
2023/01/28 10:46:48;;;;;;;3.05;0.93;;;18.40;34.10;;;;;;5033408;28;20196;-70
2023/01/28 10:49:18;;;;;;;2.88;1.00;;;18.50;34.10;;;;;;5033484;28;20200;-69
2023/01/28 10:51:46;;;;;;;1.02;0.63;;;18.40;34.00;;;;;;5033719;28;20613;-71
2023/01/28 10:54:29;;;;;;;1.67;1.00;;;18.50;34.10;;;;;;5033387;28;20254;-71
2023/01/28 10:57:01;;;;;;;1.13;1.00;;;18.50;34.10;;;;;;5032912;28;20188;-70
2023/01/28 10:59:30;;;;;;;1.75;1.10;;;18.50;34.10;;;;;;5033541;28;20188;-73
2023/01/28 11:01:59;;;;;;;2.03;0.90;;;18.40;34.00;;;;;;5033589;28;20216;-73
2023/01/28 11:04:29;;;;;;;1.40;0.80;;;18.50;34.10;;;;;;5033093;28;20336;-70
2023/01/28 11:06:58;;;;;;;0.75;0.60;;;18.40;34.00;;;;;;5032500;28;20208;-71
2023/01/28 11:09:30;;;;;;;2.05;1.30;;;18.40;34.00;;;;;;5032611;28;20666;-72
2023/01/28 11:11:58;;;;;;;1.20;1.10;;;18.50;34.00;;;;;;5032853;28;20279;-71
2023/01/28 11:14:26;;;;;;;0.80;0.68;;;18.50;34.00;;;;;;5032922;28;20553;-72
2023/01/28 11:16:56;;;;;;;1.83;0.90;;;18.50;34.00;;;;;;5032880;28;20854;-70
2023/01/28 11:19:31;;;;;;;2.22;1.20;;;18.50;34.00;;;;;;5033166;28;20193;-71
2023/01/28 11:21:58;;;;;;;1.58;1.00;;;18.50;34.00;;;;;;5032950;28;20689;-72
2023/01/28 11:24:30;;;;;;;1.50;1.02;;;18.50;33.90;;;;;;5032482;28;20277;-71
2023/01/28 11:27:01;;;;;;;1.83;1.10;;;18.50;34.00;;;;;;5032900;28;20239;-70
2023/01/28 11:29:31;;;;;;;1.45;1.10;;;18.50;33.90;;;;;;5032696;28;20650;-69
2023/01/28 11:32:00;;;;;;;1.52;1.20;;;18.50;34.00;;;;;;5032824;28;20196;-70
2023/01/28 11:34:30;;;;;;;3.00;0.90;;;18.50;34.00;;;;;;5033028;28;20251;-69
2023/01/28 11:37:04;;;;;;;1.02;0.93;;;18.50;34.00;;;;;;5032940;28;20590;-71
2023/01/28 11:39:33;;;;;;;1.58;1.00;;;18.50;34.00;;;;;;5032287;28;20195;-70
2023/01/28 11:42:12;;;;;;;2.80;0.88;;;18.50;34.00;;;;;;5032702;28;20611;-70
2023/01/28 11:44:40;;;;;;;1.65;1.00;;;18.50;34.00;;;;;;5032595;28;20704;-72
2023/01/28 11:47:36;;;;;;;2.10;1.00;;;18.50;33.90;;;;;;5032435;28;20708;-71
2023/01/28 11:50:20;;;;;;;2.13;1.33;;;18.50;34.00;;;;;;5029394;28;20196;-72
2023/01/28 11:52:58;;;;;;;2.33;1.25;;;18.50;33.90;;;;;;5032918;28;20220;-71
2023/01/28 11:55:40;;;;;;;2.00;1.10;;;18.60;34.00;;;;;;5031908;28;20646;-73
2023/01/28 11:58:20;;;;;;;1.40;1.17;;;18.60;34.00;;;;;;5032821;28;20242;-70
2023/01/28 12:00:56;;;;;;;1.10;1.00;;;18.60;34.00;;;;;;5032337;28;20282;-70
2023/01/28 12:03:47;;;;;;;2.42;1.00;;;18.50;33.90;;;;;;5032473;28;20235;-72
2023/01/28 12:06:31;;;;;;;0.98;0.95;;;18.50;33.90;;;;;;5032680;28;20258;-71
2023/01/28 12:09:07;;;;;;;1.42;1.23;;;18.60;33.90;;;;;;5032003;28;20270;-71
2023/01/28 12:14:42;;;;;;;1.67;0.95;;;18.60;33.90;;;;;;5032094;28;20180;-71
2023/01/28 12:17:21;;;;;;;1.80;1.20;;;18.60;34.00;;;;;;5032023;28;20188;-72
2023/01/28 12:20:09;;;;;;;1.25;1.00;;;18.60;34.00;;;;;;5032609;28;20192;-71
2023/01/28 12:23:02;;;;;;;2.65;1.38;;;18.60;33.90;;;;;;5032237;28;20236;-73
2023/01/28 12:25:42;;;;;;;1.67;1.08;;;18.60;33.90;;;;;;5027545;28;20710;-70
2023/01/28 12:28:19;;;;;;;1.70;1.10;;;18.60;33.90;;;;;;5031352;28;20220;-72
2023/01/28 12:31:07;;;;;;;1.20;0.90;;;18.60;33.90;;;;;;5032563;28;20192;-72
2023/01/28 12:33:54;;;;;;;0.95;0.80;;;18.60;33.80;;;;;;5031933;28;20636;-71
2023/01/28 12:36:33;;;;;;;1.38;1.10;;;18.60;33.90;;;;;;5031794;28;20192;-72
2023/01/28 12:39:12;;;;;;;1.30;0.93;;;18.60;33.90;;;;;;5035616;28;20701;-69
2023/01/28 12:41:43;;;;;;;1.45;0.82;;;18.60;33.90;;;;;;5036075;28;20223;-70
2023/01/28 12:44:17;;;;;;;1.83;1.00;;;18.60;33.90;;;;;;5035692;28;20644;-69
2023/01/28 12:46:51;;;;;;;1.50;1.00;;;18.60;33.90;;;;;;5035937;28;20219;-71
2023/01/28 12:49:21;;;;;;;1.35;1.05;;;18.60;33.90;;;;;;5035942;28;20224;-70
2023/01/28 12:52:00;;;;;;;2.30;1.40;;;18.60;33.90;;;;;;5035920;28;20307;-74
2023/01/28 12:54:34;;;;;;;1.40;1.05;;;18.60;34.20;;;;;;5035198;28;20775;-74
2023/01/28 12:57:01;;;;;;;1.45;1.10;;;18.60;33.60;;;;;;5035358;28;20605;-75
2023/01/28 12:59:37;;;;;;;1.98;1.17;;;18.70;33.70;;;;;;5035924;28;20286;-74
2023/01/28 13:02:21;;;;;;;1.48;1.15;;;18.70;33.60;;;;;;5015972;28;20884;-73
2023/01/28 13:04:58;;;;;;;2.45;1.05;;;18.70;33.60;;;;;;5018501;28;20236;-74
2023/01/28 13:07:28;;;;;;;2.60;1.10;;;18.70;33.60;;;;;;5009673;28;20209;-74
2023/01/28 13:10:04;;;;;;;1.67;1.00;;;18.70;33.70;;;;;;5018079;28;20196;-75
2023/01/28 13:12:32;;;;;;;2.25;1.15;;;18.70;33.70;;;;;;5018264;28;20196;-74
2023/01/28 13:15:01;;;;;;;1.67;1.10;;;18.70;33.70;;;;;;5024545;28;20688;-74
2023/01/28 13:17:30;;;;;;;1.42;0.95;;;18.70;33.70;;;;;;5013746;28;20717;-74
2023/01/28 13:19:58;;;;;;;1.58;1.05;;;18.70;33.60;;;;;;4998355;28;20216;-74
2023/01/28 13:22:29;;;;;;;1.90;1.10;;;18.70;33.60;;;;;;5010479;28;20696;-74
2023/01/28 13:24:58;;;;;;;2.20;1.15;;;18.70;34.10;;;;;;5009255;28;20213;-74
2023/01/28 13:27:28;;;;;;;1.55;1.13;;;18.70;33.60;;;;;;5002737;28;20225;-75
2023/01/28 13:30:06;;;;;;;1.60;1.10;;;18.80;33.70;;;;;;5000894;28;20690;-74
2023/01/28 13:32:35;;;;;;;1.58;1.20;;;18.80;33.80;;;;;;5008271;28;20250;-74
2023/01/28 13:35:06;;;;;;;1.58;1.30;;;18.80;33.70;;;;;;5014526;28;20205;-75